createdAt,value
2023-05-06T00:00:15.738Z,100501.15
2023-05-06T00:02:47.310Z,100497.41
2023-05-06T00:05:18.729Z,100496.10
2023-05-06T00:07:49.276Z,100493.48
2023-05-06T00:10:40.080Z,100498.30
2023-05-06T00:13:17.996Z,100496.11
2023-05-06T00:15:58.680Z,100495.07
2023-05-06T00:18:29.309Z,100495.45
2023-05-06T00:21:09.369Z,100496.64
2023-05-06T00:23:39.978Z,100495.73
2023-05-06T00:26:10.576Z,100495.95
2023-05-06T00:28:51.248Z,100497.27
2023-05-06T00:31:21.610Z,100494.49
2023-05-06T00:33:52.785Z,100490.27
2023-05-06T00:36:23.176Z,100488.17
2023-05-06T00:38:53.691Z,100486.33
2023-05-06T00:41:24.204Z,100486.14
2023-05-06T00:43:54.715Z,100487.54
2023-05-06T00:46:25.548Z,100486.07
2023-05-06T00:48:57.211Z,100485.55
2023-05-06T00:51:28.860Z,100483.42
2023-05-06T00:54:03.632Z,100483.67
2023-05-06T00:56:34.403Z,100485.56
2023-05-06T00:59:04.848Z,100490.41
2023-05-06T01:01:35.509Z,100489.40
2023-05-06T01:04:07.584Z,100488.18
2023-05-06T01:06:46.515Z,100490.42
2023-05-06T01:09:23.576Z,100490.91
2023-05-06T01:12:07.946Z,100490.39
2023-05-06T01:14:45.743Z,100490.88
2023-05-06T01:17:19.248Z,100489.88
2023-05-06T01:19:53.346Z,100491.65
2023-05-06T01:22:25.980Z,100488.34
2023-05-06T01:24:56.374Z,100487.30
2023-05-06T01:27:27.335Z,100487.96
2023-05-06T01:29:59.331Z,100487.96
2023-05-06T01:32:45.040Z,100492.05
2023-05-06T01:35:22.213Z,100496.05
2023-05-06T01:38:05.793Z,100499.63
2023-05-06T01:40:36.726Z,100502.30
2023-05-06T01:43:08.813Z,100500.36
2023-05-06T01:45:40.560Z,100499.46
2023-05-06T01:48:12.273Z,100502.44
2023-05-06T01:50:45.788Z,100504.85
2023-05-06T01:53:14.636Z,100499.49
2023-05-06T01:55:45.021Z,100498.39
2023-05-06T01:58:15.880Z,100491.19
2023-05-06T02:00:46.602Z,100493.52
2023-05-06T02:03:19.560Z,100496.16
2023-05-06T02:05:53.853Z,100502.52
2023-05-06T02:08:24.902Z,100499.30
2023-05-06T02:11:07.240Z,100503.94
2023-05-06T02:13:58.257Z,100504.89
2023-05-06T02:16:31.261Z,100502.95
2023-05-06T02:22:16.570Z,100506.61
2023-05-06T02:25:02.126Z,100509.80
2023-05-06T02:27:34.988Z,100514.54
2023-05-06T02:30:08.666Z,100510.14
2023-05-06T02:32:54.967Z,100508.04
2023-05-06T02:35:28.674Z,100508.92
2023-05-06T02:38:43.661Z,100507.20
2023-05-06T02:41:18.424Z,100505.64
2023-05-06T02:43:49.842Z,100505.33
2023-05-06T02:46:27.601Z,100504.61
2023-05-06T02:49:02.566Z,100508.48
2023-05-06T02:51:47.130Z,100504.61
2023-05-06T02:54:25.418Z,100504.23
2023-05-06T02:56:58.366Z,100499.21
2023-05-06T02:59:32.066Z,100492.71
2023-05-06T03:02:07.879Z,100492.95
2023-05-06T03:04:38.570Z,100494.26
2023-05-06T03:07:09.046Z,100492.52
2023-05-06T03:09:59.806Z,100494.41
2023-05-06T03:12:39.850Z,100489.91
2023-05-06T03:15:21.669Z,100490.77
2023-05-06T03:17:55.587Z,100496.53
2023-05-06T03:20:46.370Z,100495.64
2023-05-06T03:23:28.027Z,100493.65
2023-05-06T03:26:01.294Z,100494.83
2023-05-06T03:28:33.071Z,100496.31
2023-05-06T03:31:05.237Z,100496.02
2023-05-06T03:33:38.373Z,100498.80
2023-05-06T03:36:09.736Z,100497.00
2023-05-06T03:38:42.977Z,100499.98
2023-05-06T03:41:18.081Z,100501.35
2023-05-06T03:43:59.146Z,100500.48
2023-05-06T03:46:49.946Z,100500.98
2023-05-06T03:49:21.588Z,100498.84
2023-05-06T03:51:53.305Z,100502.48
2023-05-06T03:54:24.896Z,100500.96
2023-05-06T03:57:15.605Z,100503.21
2023-05-06T04:00:07.925Z,100498.27
2023-05-06T04:02:46.559Z,100499.80
2023-05-06T04:05:32.589Z,100503.77
2023-05-06T04:08:23.152Z,100507.02
2023-05-06T04:10:53.796Z,100506.23
2023-05-06T04:13:34.457Z,100509.30
2023-05-06T04:16:08.568Z,100508.42
2023-05-06T04:18:43.810Z,100505.12
2023-05-06T04:21:18.370Z,100510.47
2023-05-06T04:23:54.702Z,100512.88
2023-05-06T04:26:29.150Z,100517.80
2023-05-06T04:29:20.031Z,100520.48
2023-05-06T04:32:13.771Z,100524.05
2023-05-06T04:35:04.924Z,100528.14
2023-05-06T04:37:35.554Z,100524.84
2023-05-06T04:40:17.876Z,100523.63
2023-05-06T04:42:49.859Z,100528.89
2023-05-06T04:45:26.005Z,100529.30
2023-05-06T04:47:56.612Z,100534.81
2023-05-06T04:50:26.459Z,100535.52
2023-05-06T04:52:57.505Z,100534.81
2023-05-06T04:55:33.391Z,100534.47
2023-05-06T04:58:04.036Z,100538.50
2023-05-06T05:00:34.712Z,100535.23
2023-05-06T05:03:06.404Z,100536.48
2023-05-06T05:05:46.151Z,100536.88
2023-05-06T05:08:20.264Z,100543.41
2023-05-06T05:10:50.876Z,100546.21
2023-05-06T05:13:23.827Z,100554.47
2023-05-06T05:15:58.299Z,100555.85
2023-05-06T05:18:39.784Z,100556.19
2023-05-06T05:21:21.022Z,100561.89
2023-05-06T05:23:51.852Z,100567.83
2023-05-06T05:26:22.653Z,100567.39
2023-05-06T05:28:54.715Z,100566.30
2023-05-06T05:31:26.388Z,100570.71
2023-05-06T05:33:57.194Z,100573.02
2023-05-06T05:36:30.671Z,100572.08
2023-05-06T05:39:04.962Z,100569.23
2023-05-06T05:41:36.350Z,100571.80
2023-05-06T05:44:07.257Z,100567.48
2023-05-06T05:46:38.220Z,100564.73
2023-05-06T05:49:08.927Z,100558.44
2023-05-06T05:51:39.765Z,100561.14
2023-05-06T05:54:11.098Z,100558.95
2023-05-06T05:56:41.836Z,100558.88
2023-05-06T05:59:12.628Z,100562.45
2023-05-06T06:01:43.271Z,100560.16
2023-05-06T06:04:17.401Z,100563.52
2023-05-06T06:06:48.222Z,100565.25
2023-05-06T06:09:18.868Z,100560.48
2023-05-06T06:11:50.511Z,100561.10
2023-05-06T06:14:21.588Z,100559.91
2023-05-06T06:16:53.764Z,100563.95
2023-05-06T06:19:27.432Z,100560.41
2023-05-06T06:21:58.104Z,100558.95
2023-05-06T06:24:34.918Z,100556.47
2023-05-06T06:27:05.695Z,100558.98
2023-05-06T06:29:39.171Z,100562.87
2023-05-06T06:32:19.633Z,100565.98
2023-05-06T06:34:55.970Z,100571.04
2023-05-06T06:37:27.135Z,100572.48
2023-05-06T06:40:11.850Z,100574.95
2023-05-06T06:42:42.255Z,100576.35
2023-05-06T06:45:32.700Z,100579.17
2023-05-06T06:48:12.363Z,100579.44
2023-05-06T06:50:42.958Z,100575.86
2023-05-06T06:53:13.524Z,100580.84
2023-05-06T06:55:46.646Z,100581.95
2023-05-06T06:58:17.428Z,100585.56
2023-05-06T07:00:50.632Z,100586.50
2023-05-06T07:03:21.277Z,100582.88
2023-05-06T07:05:51.836Z,100582.95
2023-05-06T07:08:24.555Z,100582.21
2023-05-06T07:10:55.552Z,100581.94
2023-05-06T07:13:26.128Z,100583.88
2023-05-06T07:15:56.695Z,100589.16
2023-05-06T07:18:27.282Z,100589.25
2023-05-06T07:20:57.672Z,100585.69
2023-05-06T07:23:29.452Z,100583.19
2023-05-06T07:26:04.281Z,100584.73
2023-05-06T07:28:34.653Z,100587.40
2023-05-06T07:31:05.080Z,100586.74
2023-05-06T07:33:35.746Z,100586.40
2023-05-06T07:36:06.553Z,100585.77
2023-05-06T07:38:37.014Z,100586.13
2023-05-06T07:41:07.641Z,100587.25
2023-05-06T07:43:38.086Z,100590.48
2023-05-06T07:46:08.837Z,100591.88
2023-05-06T07:48:39.466Z,100594.27
2023-05-06T07:51:09.891Z,100590.70
2023-05-06T07:53:40.604Z,100589.66
2023-05-06T07:56:11.122Z,100590.48
2023-05-06T07:58:42.041Z,100590.02
2023-05-06T08:01:12.618Z,100590.23
2023-05-06T08:03:43.150Z,100590.35
2023-05-06T08:06:13.847Z,100584.83
2023-05-06T08:08:46.603Z,100591.40
2023-05-06T08:11:20.216Z,100588.69
2023-05-06T08:13:50.887Z,100593.41
2023-05-06T08:16:23.766Z,100595.68
2023-05-06T08:18:55.754Z,100592.88
2023-05-06T08:21:26.361Z,100597.95
2023-05-06T08:23:56.712Z,100596.40
2023-05-06T08:26:27.274Z,100598.36
2023-05-06T08:28:58.879Z,100600.63
2023-05-06T08:31:29.279Z,100601.35
2023-05-06T08:33:59.906Z,100604.48
2023-05-06T08:36:30.881Z,100603.40
2023-05-06T08:39:01.366Z,100606.00
2023-05-06T08:41:35.445Z,100600.53
2023-05-06T08:44:06.391Z,100594.88
2023-05-06T08:46:36.854Z,100595.98
2023-05-06T08:49:07.353Z,100595.58
2023-05-06T08:51:39.075Z,100597.62
2023-05-06T08:54:11.525Z,100598.92
2023-05-06T08:56:46.905Z,100594.52
2023-05-06T08:59:18.447Z,100590.07
2023-05-06T09:01:49.429Z,100593.87
2023-05-06T09:04:20.321Z,100592.05
2023-05-06T09:06:50.776Z,100594.96
2023-05-06T09:09:21.241Z,100591.67
2023-05-06T09:11:55.035Z,100585.83
2023-05-06T09:14:26.586Z,100585.44
2023-05-06T09:16:56.978Z,100588.60
2023-05-06T09:19:28.230Z,100586.05
2023-05-06T09:21:59.315Z,100585.55
2023-05-06T09:24:28.242Z,100584.91
2023-05-06T09:26:58.689Z,100578.27
2023-05-06T09:29:29.160Z,100576.14
2023-05-06T09:32:05.873Z,100571.78
2023-05-06T09:34:36.782Z,100571.88
2023-05-06T09:37:07.576Z,100569.31
2023-05-06T09:39:37.966Z,100568.65
2023-05-06T09:42:09.190Z,100568.83
2023-05-06T09:44:39.641Z,100574.17
2023-05-06T09:47:10.593Z,100575.41
2023-05-06T09:49:41.645Z,100573.99
2023-05-06T09:52:12.530Z,100573.23
2023-05-06T09:54:44.515Z,100565.41
2023-05-06T09:57:17.282Z,100566.34
2023-05-06T09:59:48.983Z,100563.16
2023-05-06T10:02:20.444Z,100559.79
2023-05-06T10:04:53.056Z,100558.57
2023-05-06T10:07:28.815Z,100554.27
2023-05-06T10:10:01.330Z,100550.14
2023-05-06T10:12:32.142Z,100553.42
2023-05-06T10:15:04.361Z,100544.55
2023-05-06T10:17:35.684Z,100536.70
2023-05-06T10:20:09.665Z,100532.90
2023-05-06T10:22:54.372Z,100532.55
2023-05-06T10:25:36.273Z,100531.15
2023-05-06T10:28:14.555Z,100528.29
2023-05-06T10:30:53.154Z,100529.88
2023-05-06T10:33:25.720Z,100519.81
2023-05-06T10:36:04.335Z,100516.46
2023-05-06T10:38:38.874Z,100517.61
2023-05-06T10:41:10.620Z,100509.55
2023-05-06T10:43:44.206Z,100514.20
2023-05-06T10:46:18.792Z,100519.19
2023-05-06T10:49:20.719Z,100513.60
2023-05-06T10:52:12.988Z,100506.94
2023-05-06T10:54:53.519Z,100500.65
2023-05-06T10:57:27.091Z,100500.78
2023-05-06T10:59:57.936Z,100493.58
2023-05-06T11:02:31.136Z,100488.21
2023-05-06T11:05:05.781Z,100479.70
2023-05-06T11:07:36.687Z,100481.29
2023-05-06T11:10:12.119Z,100476.81
2023-05-06T11:12:50.950Z,100483.41
2023-05-06T11:15:27.259Z,100479.05
2023-05-06T11:17:58.193Z,100474.98
2023-05-06T11:20:28.690Z,100472.52
2023-05-06T11:22:59.143Z,100473.59
2023-05-06T11:25:47.108Z,100470.00
2023-05-06T11:28:17.943Z,100474.10
2023-05-06T11:30:56.887Z,100470.00
2023-05-06T11:33:33.057Z,100469.55
2023-05-06T11:36:04.156Z,100466.19
2023-05-06T11:38:45.490Z,100464.86
2023-05-06T11:41:16.725Z,100465.89
2023-05-06T11:43:50.969Z,100465.08
2023-05-06T11:46:23.574Z,100464.90
2023-05-06T11:48:54.087Z,100462.75
2023-05-06T11:51:26.635Z,100461.63
2023-05-06T11:54:07.245Z,100462.45
2023-05-06T11:56:49.383Z,100457.39
2023-05-06T11:59:29.033Z,100456.42
2023-05-06T12:02:01.620Z,100450.08
2023-05-06T12:04:39.787Z,100453.72
2023-05-06T12:07:11.717Z,100454.09
2023-05-06T12:09:44.183Z,100453.35
2023-05-06T12:12:17.456Z,100453.93
2023-05-06T12:14:48.544Z,100454.63
2023-05-06T12:17:19.654Z,100449.92
2023-05-06T12:19:50.079Z,100448.73
2023-05-06T12:22:25.414Z,100450.57
2023-05-06T12:24:55.980Z,100451.05
2023-05-06T12:27:36.662Z,100445.73
2023-05-06T12:30:09.441Z,100444.29
2023-05-06T12:32:59.209Z,100444.67
2023-05-06T12:35:31.421Z,100441.54
2023-05-06T12:38:12.896Z,100438.71
2023-05-06T12:40:44.560Z,100439.54
2023-05-06T12:43:14.862Z,100439.06
2023-05-06T12:45:46.417Z,100438.61
2023-05-06T12:48:19.125Z,100434.73
2023-05-06T12:50:50.384Z,100428.39
2023-05-06T12:53:33.559Z,100430.42
2023-05-06T12:56:04.402Z,100431.40
2023-05-06T12:58:37.378Z,100426.36
2023-05-06T13:01:08.764Z,100428.62
2023-05-06T13:03:41.080Z,100426.92
2023-05-06T13:06:12.503Z,100426.11
2023-05-06T13:08:43.723Z,100420.05
2023-05-06T13:11:14.155Z,100420.23
2023-05-06T13:13:44.472Z,100418.16
2023-05-06T13:16:14.821Z,100417.11
2023-05-06T13:18:45.309Z,100412.17
2023-05-06T13:21:15.855Z,100407.83
2023-05-06T13:23:48.136Z,100405.24
2023-05-06T13:26:18.640Z,100404.48
2023-05-06T13:28:49.902Z,100397.42
2023-05-06T13:31:21.773Z,100393.67
2023-05-06T13:33:52.499Z,100389.77
2023-05-06T13:36:23.163Z,100387.73
2023-05-06T13:38:53.755Z,100381.08
2023-05-06T13:41:25.419Z,100381.52
2023-05-06T13:43:55.931Z,100381.13
2023-05-06T13:46:27.419Z,100382.85
2023-05-06T13:48:57.777Z,100380.30
2023-05-06T13:51:30.570Z,100376.04
2023-05-06T13:54:01.299Z,100371.16
2023-05-06T13:56:30.208Z,100365.25
2023-05-06T13:59:00.709Z,100364.55
2023-05-06T14:01:32.089Z,100366.52
2023-05-06T14:04:02.358Z,100363.77
2023-05-06T14:06:32.752Z,100364.65
2023-05-06T14:09:03.647Z,100359.89
2023-05-06T14:11:32.495Z,100354.95
2023-05-06T14:14:02.916Z,100357.98
2023-05-06T14:16:33.860Z,100353.77
2023-05-06T14:19:04.787Z,100352.23
2023-05-06T14:21:35.594Z,100350.34
2023-05-06T14:24:06.203Z,100348.70
2023-05-06T14:26:38.110Z,100344.55
2023-05-06T14:29:08.465Z,100342.30
2023-05-06T14:31:38.904Z,100339.59
2023-05-06T14:34:09.568Z,100336.30
2023-05-06T14:36:40.139Z,100334.98
2023-05-06T14:39:10.439Z,100332.79
2023-05-06T14:41:41.198Z,100328.52
2023-05-06T14:44:10.150Z,100326.49
2023-05-06T14:46:40.575Z,100327.17
2023-05-06T14:49:11.090Z,100327.30
2023-05-06T14:51:41.550Z,100325.17
2023-05-06T14:54:12.313Z,100319.40
2023-05-06T14:56:41.382Z,100322.33
2023-05-06T14:59:11.789Z,100316.92
2023-05-06T15:01:42.309Z,100309.52
2023-05-06T15:04:12.772Z,100312.83
2023-05-06T15:06:43.302Z,100307.52
2023-05-06T15:09:13.653Z,100304.89
2023-05-06T15:11:44.156Z,100308.40
2023-05-06T15:14:14.610Z,100306.71
2023-05-06T15:16:45.001Z,100314.18
2023-05-06T15:19:15.414Z,100317.05
2023-05-06T15:21:45.818Z,100313.34
2023-05-06T15:24:16.444Z,100312.64
2023-05-06T15:26:45.385Z,100318.05
2023-05-06T15:29:17.674Z,100315.30
2023-05-06T15:31:48.400Z,100315.41
2023-05-06T15:34:20.806Z,100315.21
2023-05-06T15:36:54.832Z,100317.98
2023-05-06T15:39:25.126Z,100313.39
2023-05-06T15:41:55.673Z,100308.61
2023-05-06T15:44:26.995Z,100310.72
2023-05-06T15:46:57.577Z,100312.08
2023-05-06T15:52:01.673Z,100311.41
2023-05-06T15:54:33.612Z,100307.48
2023-05-06T15:57:07.195Z,100307.48
2023-05-06T15:59:37.763Z,100306.11
2023-05-06T16:04:42.094Z,100304.33
2023-05-06T16:07:12.963Z,100303.16
2023-05-06T16:09:44.195Z,100310.48
2023-05-06T16:12:15.101Z,100305.73
2023-05-06T16:14:44.242Z,100307.04
2023-05-06T16:17:15.532Z,100306.98
2023-05-06T16:19:45.972Z,100305.06
2023-05-06T16:22:16.526Z,100303.36
2023-05-06T16:24:46.994Z,100304.45
2023-05-06T16:27:17.582Z,100302.54
2023-05-06T16:29:48.089Z,100303.80
2023-05-06T16:32:18.375Z,100302.30
2023-05-06T16:34:48.930Z,100307.01
2023-05-06T16:37:19.489Z,100302.96
2023-05-06T16:39:49.979Z,100300.05
2023-05-06T16:42:20.375Z,100298.84
2023-05-06T16:44:50.768Z,100296.83
2023-05-06T16:47:23.766Z,100299.43
2023-05-06T16:49:54.480Z,100298.38
2023-05-06T16:52:25.528Z,100299.21
2023-05-06T16:54:59.403Z,100299.34
2023-05-06T16:57:30.026Z,100297.28
2023-05-06T17:00:01.833Z,100295.91
2023-05-06T17:02:32.498Z,100294.45
2023-05-06T17:05:03.195Z,100292.27
2023-05-06T17:07:33.682Z,100292.83
2023-05-06T17:10:04.766Z,100289.39
2023-05-06T17:12:34.051Z,100290.09
2023-05-06T17:15:05.809Z,100287.38
2023-05-06T17:17:36.508Z,100285.09
2023-05-06T17:20:09.362Z,100282.34
2023-05-06T17:22:39.902Z,100279.35
2023-05-06T17:25:11.183Z,100279.09
2023-05-06T17:27:41.725Z,100278.23
2023-05-06T17:30:13.013Z,100276.25
2023-05-06T17:32:43.760Z,100276.16
2023-05-06T17:35:16.643Z,100278.33
2023-05-06T17:37:47.507Z,100278.20
2023-05-06T17:40:18.212Z,100277.98
2023-05-06T17:42:48.720Z,100279.88
2023-05-06T17:45:19.597Z,100279.39
2023-05-06T17:47:50.963Z,100279.38
2023-05-06T17:50:21.569Z,100279.17
2023-05-06T17:52:52.913Z,100279.36
2023-05-06T17:55:26.436Z,100276.61
2023-05-06T17:57:56.883Z,100279.38
2023-05-06T18:00:28.018Z,100275.58
2023-05-06T18:02:58.744Z,100279.27
2023-05-06T18:05:29.433Z,100276.80
2023-05-06T18:07:59.890Z,100281.13
2023-05-06T18:10:33.509Z,100280.67
2023-05-06T18:13:04.248Z,100283.61
2023-05-06T18:15:35.022Z,100282.48
2023-05-06T18:18:05.740Z,100285.31
2023-05-06T18:20:36.367Z,100289.27
2023-05-06T18:23:08.612Z,100291.54
2023-05-06T18:25:39.071Z,100295.27
2023-05-06T18:28:09.686Z,100300.05
2023-05-06T18:30:40.333Z,100302.95
2023-05-06T18:33:10.815Z,100305.73
2023-05-06T18:35:44.502Z,100306.55
2023-05-06T18:38:18.619Z,100303.83
2023-05-06T18:40:47.983Z,100305.00
2023-05-06T18:43:20.838Z,100308.77
2023-05-06T18:46:05.433Z,100307.69
2023-05-06T18:48:36.510Z,100310.92
2023-05-06T18:51:18.102Z,100313.62
2023-05-06T18:54:03.482Z,100307.67
2023-05-06T18:56:34.105Z,100307.39
2023-05-06T18:59:07.007Z,100308.03
2023-05-06T19:01:37.620Z,100310.99
2023-05-06T19:04:11.680Z,100316.02
2023-05-06T19:06:45.573Z,100315.79
2023-05-06T19:09:16.291Z,100318.84
2023-05-06T19:11:47.075Z,100324.32
2023-05-06T19:14:17.828Z,100329.25
2023-05-06T19:16:49.360Z,100328.83
2023-05-06T19:19:22.431Z,100326.77
2023-05-06T19:21:53.942Z,100328.61
2023-05-06T19:24:24.568Z,100329.10
2023-05-06T19:26:55.322Z,100333.66
2023-05-06T19:29:25.985Z,100337.23
2023-05-06T19:32:17.280Z,100339.38
2023-05-06T19:35:06.285Z,100341.02
2023-05-06T19:37:39.980Z,100339.69
2023-05-06T19:40:12.045Z,100339.65
2023-05-06T19:42:42.811Z,100341.14
2023-05-06T19:45:22.599Z,100344.43
2023-05-06T19:47:53.579Z,100348.65
2023-05-06T19:50:25.859Z,100347.84
2023-05-06T19:53:00.014Z,100350.95
2023-05-06T19:55:30.852Z,100349.18
2023-05-06T19:58:02.300Z,100349.11
2023-05-06T20:00:33.106Z,100350.08
2023-05-06T20:03:06.235Z,100352.45
2023-05-06T20:05:39.780Z,100352.20
2023-05-06T20:08:11.249Z,100352.46
2023-05-06T20:10:41.967Z,100353.44
2023-05-06T20:13:14.992Z,100353.84
2023-05-06T20:15:45.440Z,100350.82
2023-05-06T20:18:16.069Z,100350.04
2023-05-06T20:20:49.084Z,100352.28
2023-05-06T20:23:22.039Z,100349.11
2023-05-06T20:25:53.204Z,100349.10
2023-05-06T20:28:23.664Z,100348.41
2023-05-06T20:30:59.673Z,100350.05
2023-05-06T20:33:30.364Z,100350.84
2023-05-06T20:36:01.174Z,100348.90
2023-05-06T20:38:31.926Z,100356.27
2023-05-06T20:41:05.626Z,100356.94
2023-05-06T20:43:36.508Z,100356.52
2023-05-06T20:46:12.767Z,100358.52
2023-05-06T20:48:43.433Z,100355.65
2023-05-06T20:51:14.001Z,100350.10
2023-05-06T20:53:47.634Z,100357.13
2023-05-06T20:56:24.664Z,100355.52
2023-05-06T20:58:56.374Z,100354.82
2023-05-06T21:01:27.813Z,100352.58
2023-05-06T21:03:58.982Z,100356.70
2023-05-06T21:06:29.613Z,100357.03
2023-05-06T21:09:00.147Z,100355.26
2023-05-06T21:11:31.410Z,100361.06
2023-05-06T21:14:04.685Z,100361.18
2023-05-06T21:16:35.489Z,100359.51
2023-05-06T21:19:06.032Z,100357.84
2023-05-06T21:21:36.736Z,100356.61
2023-05-06T21:24:08.123Z,100360.46
2023-05-06T21:26:58.895Z,100362.31
2023-05-06T21:29:32.020Z,100364.84
2023-05-06T21:32:02.543Z,100359.96
2023-05-06T21:34:47.991Z,100364.52
2023-05-06T21:37:18.596Z,100362.17
2023-05-06T21:39:54.188Z,100363.23
2023-05-06T21:42:37.886Z,100360.56
2023-05-06T21:45:14.944Z,100357.60
2023-05-06T21:47:55.004Z,100357.52
2023-05-06T21:50:25.841Z,100359.33
2023-05-06T21:52:59.590Z,100360.02
2023-05-06T21:55:39.115Z,100353.48
2023-05-06T21:58:09.548Z,100352.70
2023-05-06T22:00:40.167Z,100352.16
2023-05-06T22:03:11.019Z,100352.30
2023-05-06T22:05:44.668Z,100351.28
2023-05-06T22:08:15.439Z,100350.77
2023-05-06T22:10:46.054Z,100347.91
2023-05-06T22:13:16.802Z,100349.02
2023-05-06T22:15:47.800Z,100348.49
2023-05-06T22:18:18.387Z,100347.38
2023-05-06T22:20:52.480Z,100342.52
2023-05-06T22:23:23.938Z,100343.31
2023-05-06T22:25:54.810Z,100345.14
2023-05-06T22:28:25.508Z,100341.43
2023-05-06T22:30:56.228Z,100341.65
2023-05-06T22:33:38.070Z,100337.84
2023-05-06T22:36:09.449Z,100335.05
2023-05-06T22:38:40.068Z,100337.77
2023-05-06T22:41:13.703Z,100339.98
2023-05-06T22:43:54.317Z,100341.30
2023-05-06T22:46:28.826Z,100342.29
2023-05-06T22:49:08.606Z,100343.05
2023-05-06T22:51:41.801Z,100343.05
2023-05-06T22:54:12.543Z,100342.06
2023-05-06T22:56:43.427Z,100341.79
2023-05-06T22:59:24.126Z,100349.80
2023-05-06T23:01:55.613Z,100345.95
2023-05-06T23:04:26.924Z,100344.02
2023-05-06T23:07:08.668Z,100347.02
2023-05-06T23:09:39.405Z,100350.77
2023-05-06T23:12:10.348Z,100349.19
2023-05-06T23:14:40.970Z,100348.73
2023-05-06T23:17:14.363Z,100350.16
2023-05-06T23:19:47.686Z,100347.58
2023-05-06T23:22:20.558Z,100347.25
2023-05-06T23:24:51.723Z,100342.41
2023-05-06T23:27:22.553Z,100344.79
2023-05-06T23:29:53.197Z,100345.97
2023-05-06T23:32:26.308Z,100343.46
2023-05-06T23:34:56.859Z,100343.52
2023-05-06T23:37:27.641Z,100344.23
2023-05-06T23:39:58.581Z,100344.30
2023-05-06T23:42:29.259Z,100349.77
2023-05-06T23:45:00.377Z,100349.58
2023-05-06T23:47:36.019Z,100349.37
2023-05-06T23:50:11.194Z,100350.24
2023-05-06T23:52:44.595Z,100354.34
2023-05-06T23:55:15.213Z,100353.81
2023-05-06T23:57:50.455Z,100350.52
